sensor_id;sensor_type;location;lat;lon;timestamp;P1;durP1;ratioP1;P2;durP2;ratioP2
77304;SDS011;66364;52.622;7.746;2023-04-25T00:01:51;16.30;;;5.80;;
77304;SDS011;66364;52.622;7.746;2023-04-25T00:03:53;16.37;;;6.22;;
77304;SDS011;66364;52.622;7.746;2023-04-25T00:05:53;15.50;;;6.07;;
77304;SDS011;66364;52.622;7.746;2023-04-25T00:07:55;24.40;;;6.17;;
77304;SDS011;66364;52.622;7.746;2023-04-25T00:09:58;15.85;;;6.72;;
77304;SDS011;66364;52.622;7.746;2023-04-25T00:11:59;22.77;;;7.85;;
77304;SDS011;66364;52.622;7.746;2023-04-25T00:14:01;14.18;;;7.60;;
77304;SDS011;66364;52.622;7.746;2023-04-25T00:16:03;18.05;;;5.53;;
77304;SDS011;66364;52.622;7.746;2023-04-25T00:18:04;19.57;;;7.28;;
77304;SDS011;66364;52.622;7.746;2023-04-25T00:20:05;21.70;;;6.67;;
77304;SDS011;66364;52.622;7.746;2023-04-25T00:22:07;16.37;;;5.65;;
77304;SDS011;66364;52.622;7.746;2023-04-25T00:24:08;23.30;;;7.03;;
77304;SDS011;66364;52.622;7.746;2023-04-25T00:26:09;13.75;;;5.22;;
77304;SDS011;66364;52.622;7.746;2023-04-25T00:28:11;16.77;;;6.87;;
77304;SDS011;66364;52.622;7.746;2023-04-25T00:30:13;16.73;;;6.03;;
77304;SDS011;66364;52.622;7.746;2023-04-25T00:32:16;22.60;;;6.50;;
77304;SDS011;66364;52.622;7.746;2023-04-25T00:34:17;17.67;;;5.75;;
77304;SDS011;66364;52.622;7.746;2023-04-25T00:36:18;13.70;;;5.50;;
77304;SDS011;66364;52.622;7.746;2023-04-25T00:38:20;20.80;;;5.65;;
77304;SDS011;66364;52.622;7.746;2023-04-25T00:40:21;21.13;;;5.80;;
77304;SDS011;66364;52.622;7.746;2023-04-25T00:42:23;23.30;;;6.27;;
77304;SDS011;66364;52.622;7.746;2023-04-25T00:44:26;25.00;;;6.55;;
77304;SDS011;66364;52.622;7.746;2023-04-25T00:46:30;20.75;;;8.10;;
77304;SDS011;66364;52.622;7.746;2023-04-25T00:48:31;18.10;;;5.92;;
77304;SDS011;66364;52.622;7.746;2023-04-25T00:50:33;20.93;;;6.30;;
77304;SDS011;66364;52.622;7.746;2023-04-25T00:52:38;27.73;;;6.70;;
77304;SDS011;66364;52.622;7.746;2023-04-25T00:54:41;14.43;;;6.00;;
77304;SDS011;66364;52.622;7.746;2023-04-25T00:56:48;22.13;;;7.55;;
77304;SDS011;66364;52.622;7.746;2023-04-25T00:58:50;27.35;;;6.92;;
77304;SDS011;66364;52.622;7.746;2023-04-25T01:00:54;14.10;;;6.83;;
77304;SDS011;66364;52.622;7.746;2023-04-25T01:02:56;18.30;;;6.20;;
77304;SDS011;66364;52.622;7.746;2023-04-25T01:04:58;19.15;;;6.05;;
77304;SDS011;66364;52.622;7.746;2023-04-25T01:07:00;22.15;;;8.50;;
77304;SDS011;66364;52.622;7.746;2023-04-25T01:09:02;22.07;;;6.85;;
77304;SDS011;66364;52.622;7.746;2023-04-25T01:11:05;23.67;;;7.80;;
77304;SDS011;66364;52.622;7.746;2023-04-25T01:13:06;23.67;;;8.50;;
77304;SDS011;66364;52.622;7.746;2023-04-25T01:15:08;20.85;;;5.83;;
77304;SDS011;66364;52.622;7.746;2023-04-25T01:17:09;14.47;;;6.58;;
77304;SDS011;66364;52.622;7.746;2023-04-25T01:19:11;11.53;;;5.65;;
77304;SDS011;66364;52.622;7.746;2023-04-25T01:21:12;20.17;;;6.53;;
77304;SDS011;66364;52.622;7.746;2023-04-25T01:23:14;12.95;;;5.95;;
77304;SDS011;66364;52.622;7.746;2023-04-25T01:25:15;20.55;;;6.55;;
77304;SDS011;66364;52.622;7.746;2023-04-25T01:27:17;25.05;;;6.90;;
77304;SDS011;66364;52.622;7.746;2023-04-25T01:29:20;17.80;;;7.95;;
77304;SDS011;66364;52.622;7.746;2023-04-25T01:31:21;16.60;;;6.45;;
77304;SDS011;66364;52.622;7.746;2023-04-25T01:33:23;24.10;;;9.55;;
77304;SDS011;66364;52.622;7.746;2023-04-25T01:35:25;17.40;;;6.20;;
77304;SDS011;66364;52.622;7.746;2023-04-25T01:37:27;18.30;;;7.20;;
77304;SDS011;66364;52.622;7.746;2023-04-25T01:39:29;16.17;;;5.58;;
77304;SDS011;66364;52.622;7.746;2023-04-25T01:41:30;23.67;;;6.80;;
77304;SDS011;66364;52.622;7.746;2023-04-25T01:43:32;18.32;;;6.87;;
77304;SDS011;66364;52.622;7.746;2023-04-25T01:45:34;14.00;;;4.92;;
77304;SDS011;66364;52.622;7.746;2023-04-25T01:47:35;15.10;;;6.08;;
77304;SDS011;66364;52.622;7.746;2023-04-25T01:49:37;17.50;;;6.12;;
77304;SDS011;66364;52.622;7.746;2023-04-25T01:51:39;18.82;;;6.80;;
77304;SDS011;66364;52.622;7.746;2023-04-25T01:53:40;18.05;;;6.30;;
77304;SDS011;66364;52.622;7.746;2023-04-25T01:55:43;20.23;;;6.72;;
77304;SDS011;66364;52.622;7.746;2023-04-25T01:57:44;19.92;;;6.08;;
77304;SDS011;66364;52.622;7.746;2023-04-25T01:59:45;21.73;;;6.03;;
77304;SDS011;66364;52.622;7.746;2023-04-25T02:01:47;17.95;;;6.30;;
77304;SDS011;66364;52.622;7.746;2023-04-25T02:03:49;16.35;;;5.40;;
77304;SDS011;66364;52.622;7.746;2023-04-25T02:05:51;14.25;;;5.30;;
77304;SDS011;66364;52.622;7.746;2023-04-25T02:07:52;17.32;;;5.60;;
77304;SDS011;66364;52.622;7.746;2023-04-25T02:09:53;14.05;;;7.65;;
77304;SDS011;66364;52.622;7.746;2023-04-25T02:11:54;18.00;;;6.63;;
77304;SDS011;66364;52.622;7.746;2023-04-25T02:16:16;16.15;;;6.47;;
77304;SDS011;66364;52.622;7.746;2023-04-25T02:18:18;21.12;;;6.92;;
77304;SDS011;66364;52.622;7.746;2023-04-25T02:20:21;14.75;;;6.80;;
77304;SDS011;66364;52.622;7.746;2023-04-25T02:22:23;18.15;;;6.60;;
77304;SDS011;66364;52.622;7.746;2023-04-25T02:24:24;24.72;;;6.70;;
77304;SDS011;66364;52.622;7.746;2023-04-25T02:26:26;13.13;;;5.65;;
77304;SDS011;66364;52.622;7.746;2023-04-25T02:28:27;16.65;;;4.60;;
77304;SDS011;66364;52.622;7.746;2023-04-25T02:30:28;14.30;;;5.73;;
77304;SDS011;66364;52.622;7.746;2023-04-25T02:32:30;14.73;;;6.20;;
77304;SDS011;66364;52.622;7.746;2023-04-25T02:34:31;13.60;;;5.40;;
77304;SDS011;66364;52.622;7.746;2023-04-25T02:36:32;13.85;;;6.55;;
77304;SDS011;66364;52.622;7.746;2023-04-25T02:38:34;13.03;;;4.78;;
77304;SDS011;66364;52.622;7.746;2023-04-25T02:40:36;18.80;;;5.80;;
77304;SDS011;66364;52.622;7.746;2023-04-25T02:42:37;11.95;;;6.28;;
77304;SDS011;66364;52.622;7.746;2023-04-25T02:44:38;17.40;;;7.00;;
77304;SDS011;66364;52.622;7.746;2023-04-25T02:46:39;12.47;;;5.33;;
77304;SDS011;66364;52.622;7.746;2023-04-25T02:48:40;15.30;;;5.75;;
77304;SDS011;66364;52.622;7.746;2023-04-25T02:50:43;19.15;;;5.58;;
77304;SDS011;66364;52.622;7.746;2023-04-25T02:52:45;10.70;;;5.42;;
77304;SDS011;66364;52.622;7.746;2023-04-25T02:54:46;15.85;;;5.37;;
77304;SDS011;66364;52.622;7.746;2023-04-25T02:56:47;18.37;;;6.12;;
77304;SDS011;66364;52.622;7.746;2023-04-25T02:58:48;15.10;;;6.13;;
77304;SDS011;66364;52.622;7.746;2023-04-25T03:00:51;11.90;;;5.25;;
77304;SDS011;66364;52.622;7.746;2023-04-25T03:02:52;20.45;;;6.03;;
77304;SDS011;66364;52.622;7.746;2023-04-25T03:04:53;26.68;;;6.95;;
77304;SDS011;66364;52.622;7.746;2023-04-25T03:06:54;13.05;;;6.83;;
77304;SDS011;66364;52.622;7.746;2023-04-25T03:08:57;16.23;;;5.53;;
77304;SDS011;66364;52.622;7.746;2023-04-25T03:10:58;14.50;;;6.60;;
77304;SDS011;66364;52.622;7.746;2023-04-25T03:13:04;12.43;;;6.85;;
77304;SDS011;66364;52.622;7.746;2023-04-25T03:15:07;14.70;;;6.47;;
77304;SDS011;66364;52.622;7.746;2023-04-25T03:17:10;12.95;;;6.87;;
77304;SDS011;66364;52.622;7.746;2023-04-25T03:19:13;11.57;;;5.80;;
77304;SDS011;66364;52.622;7.746;2023-04-25T03:21:16;14.55;;;7.30;;
77304;SDS011;66364;52.622;7.746;2023-04-25T03:23:22;18.12;;;6.50;;
77304;SDS011;66364;52.622;7.746;2023-04-25T03:25:25;17.70;;;5.45;;
77304;SDS011;66364;52.622;7.746;2023-04-25T03:27:27;17.12;;;6.33;;
77304;SDS011;66364;52.622;7.746;2023-04-25T03:29:30;19.73;;;5.97;;
77304;SDS011;66364;52.622;7.746;2023-04-25T03:31:33;13.38;;;7.45;;
77304;SDS011;66364;52.622;7.746;2023-04-25T03:33:36;11.00;;;5.92;;
77304;SDS011;66364;52.622;7.746;2023-04-25T03:35:39;11.93;;;5.85;;
77304;SDS011;66364;52.622;7.746;2023-04-25T03:37:41;11.83;;;5.17;;
77304;SDS011;66364;52.622;7.746;2023-04-25T03:39:44;19.65;;;5.95;;
77304;SDS011;66364;52.622;7.746;2023-04-25T03:41:49;16.07;;;5.83;;
77304;SDS011;66364;52.622;7.746;2023-04-25T03:43:52;11.93;;;5.87;;
77304;SDS011;66364;52.622;7.746;2023-04-25T03:45:55;16.12;;;7.00;;
77304;SDS011;66364;52.622;7.746;2023-04-25T03:47:57;12.00;;;6.15;;
77304;SDS011;66364;52.622;7.746;2023-04-25T03:50:00;16.27;;;6.03;;
77304;SDS011;66364;52.622;7.746;2023-04-25T03:52:02;17.23;;;5.65;;
77304;SDS011;66364;52.622;7.746;2023-04-25T03:54:08;15.83;;;5.20;;
77304;SDS011;66364;52.622;7.746;2023-04-25T03:56:11;17.80;;;6.25;;
77304;SDS011;66364;52.622;7.746;2023-04-25T03:58:14;14.28;;;5.17;;
77304;SDS011;66364;52.622;7.746;2023-04-25T04:00:16;16.40;;;6.03;;
77304;SDS011;66364;52.622;7.746;2023-04-25T04:02:19;16.82;;;5.95;;
77304;SDS011;66364;52.622;7.746;2023-04-25T04:04:25;20.70;;;6.85;;
77304;SDS011;66364;52.622;7.746;2023-04-25T04:06:27;13.53;;;6.45;;
77304;SDS011;66364;52.622;7.746;2023-04-25T04:08:30;13.58;;;6.67;;
77304;SDS011;66364;52.622;7.746;2023-04-25T04:10:34;17.75;;;6.17;;
77304;SDS011;66364;52.622;7.746;2023-04-25T04:12:37;15.08;;;6.00;;
77304;SDS011;66364;52.622;7.746;2023-04-25T04:14:42;16.00;;;7.62;;
77304;SDS011;66364;52.622;7.746;2023-04-25T04:16:43;15.75;;;7.65;;
77304;SDS011;66364;52.622;7.746;2023-04-25T04:18:45;20.00;;;7.03;;
77304;SDS011;66364;52.622;7.746;2023-04-25T04:20:46;18.05;;;6.80;;
77304;SDS011;66364;52.622;7.746;2023-04-25T04:22:48;15.50;;;6.72;;
77304;SDS011;66364;52.622;7.746;2023-04-25T04:24:49;10.43;;;6.73;;
77304;SDS011;66364;52.622;7.746;2023-04-25T04:26:51;13.38;;;6.33;;
77304;SDS011;66364;52.622;7.746;2023-04-25T04:28:52;19.60;;;6.15;;
77304;SDS011;66364;52.622;7.746;2023-04-25T04:30:54;18.12;;;7.00;;
77304;SDS011;66364;52.622;7.746;2023-04-25T04:32:55;19.07;;;7.33;;
77304;SDS011;66364;52.622;7.746;2023-04-25T04:34:57;12.33;;;5.90;;
77304;SDS011;66364;52.622;7.746;2023-04-25T04:36:57;12.50;;;5.90;;
77304;SDS011;66364;52.622;7.746;2023-04-25T04:38:58;15.97;;;6.00;;
77304;SDS011;66364;52.622;7.746;2023-04-25T04:40:59;19.85;;;7.15;;
77304;SDS011;66364;52.622;7.746;2023-04-25T04:43:01;17.15;;;6.80;;
77304;SDS011;66364;52.622;7.746;2023-04-25T04:45:02;13.65;;;5.40;;
77304;SDS011;66364;52.622;7.746;2023-04-25T04:47:03;22.45;;;5.60;;
77304;SDS011;66364;52.622;7.746;2023-04-25T04:49:13;14.00;;;5.83;;
77304;SDS011;66364;52.622;7.746;2023-04-25T04:51:10;18.82;;;5.78;;
77304;SDS011;66364;52.622;7.746;2023-04-25T04:53:11;13.80;;;6.00;;
77304;SDS011;66364;52.622;7.746;2023-04-25T04:55:13;13.83;;;5.72;;
77304;SDS011;66364;52.622;7.746;2023-04-25T04:57:14;21.63;;;6.90;;
77304;SDS011;66364;52.622;7.746;2023-04-25T04:59:15;24.87;;;5.63;;
77304;SDS011;66364;52.622;7.746;2023-04-25T05:01:16;17.73;;;6.40;;
77304;SDS011;66364;52.622;7.746;2023-04-25T05:03:26;12.40;;;5.40;;
77304;SDS011;66364;52.622;7.746;2023-04-25T05:05:26;15.25;;;5.40;;
77304;SDS011;66364;52.622;7.746;2023-04-25T05:07:27;13.55;;;5.42;;
77304;SDS011;66364;52.622;7.746;2023-04-25T05:09:30;11.60;;;5.20;;
77304;SDS011;66364;52.622;7.746;2023-04-25T05:11:32;12.07;;;5.67;;
77304;SDS011;66364;52.622;7.746;2023-04-25T05:15:47;12.73;;;6.15;;
77304;SDS011;66364;52.622;7.746;2023-04-25T05:17:51;15.80;;;6.20;;
77304;SDS011;66364;52.622;7.746;2023-04-25T05:19:52;9.95;;;4.70;;
77304;SDS011;66364;52.622;7.746;2023-04-25T05:21:53;20.05;;;6.60;;
77304;SDS011;66364;52.622;7.746;2023-04-25T05:23:54;13.68;;;6.50;;
77304;SDS011;66364;52.622;7.746;2023-04-25T05:25:55;18.48;;;7.55;;
77304;SDS011;66364;52.622;7.746;2023-04-25T05:28:03;19.25;;;5.35;;
77304;SDS011;66364;52.622;7.746;2023-04-25T05:30:04;17.17;;;4.72;;
77304;SDS011;66364;52.622;7.746;2023-04-25T05:34:27;13.20;;;4.95;;
77304;SDS011;66364;52.622;7.746;2023-04-25T05:36:31;13.05;;;5.33;;
77304;SDS011;66364;52.622;7.746;2023-04-25T05:38:31;12.70;;;5.40;;
77304;SDS011;66364;52.622;7.746;2023-04-25T05:40:42;15.90;;;5.67;;
77304;SDS011;66364;52.622;7.746;2023-04-25T05:42:42;19.17;;;6.25;;
77304;SDS011;66364;52.622;7.746;2023-04-25T05:44:44;13.23;;;5.10;;
77304;SDS011;66364;52.622;7.746;2023-04-25T05:46:45;14.80;;;4.40;;
77304;SDS011;66364;52.622;7.746;2023-04-25T05:48:46;15.03;;;5.00;;
77304;SDS011;66364;52.622;7.746;2023-04-25T05:50:47;13.43;;;5.37;;
77304;SDS011;66364;52.622;7.746;2023-04-25T05:52:49;13.05;;;5.65;;
77304;SDS011;66364;52.622;7.746;2023-04-25T05:54:50;15.32;;;5.05;;
77304;SDS011;66364;52.622;7.746;2023-04-25T05:56:51;10.30;;;4.80;;
77304;SDS011;66364;52.622;7.746;2023-04-25T05:58:52;13.30;;;4.40;;
77304;SDS011;66364;52.622;7.746;2023-04-25T06:00:52;17.70;;;5.20;;
77304;SDS011;66364;52.622;7.746;2023-04-25T06:02:53;13.33;;;3.80;;
77304;SDS011;66364;52.622;7.746;2023-04-25T06:04:54;12.53;;;4.83;;
77304;SDS011;66364;52.622;7.746;2023-04-25T06:06:55;21.90;;;5.60;;
77304;SDS011;66364;52.622;7.746;2023-04-25T06:08:56;12.33;;;4.17;;
77304;SDS011;66364;52.622;7.746;2023-04-25T06:10:57;11.30;;;5.50;;
77304;SDS011;66364;52.622;7.746;2023-04-25T06:12:58;13.43;;;4.08;;
77304;SDS011;66364;52.622;7.746;2023-04-25T06:14:59;12.45;;;4.45;;
77304;SDS011;66364;52.622;7.746;2023-04-25T06:17:01;13.78;;;4.53;;
77304;SDS011;66364;52.622;7.746;2023-04-25T06:19:03;12.85;;;3.92;;
77304;SDS011;66364;52.622;7.746;2023-04-25T06:21:04;12.53;;;4.45;;
77304;SDS011;66364;52.622;7.746;2023-04-25T06:23:05;16.48;;;4.85;;
77304;SDS011;66364;52.622;7.746;2023-04-25T06:25:06;15.03;;;4.70;;
77304;SDS011;66364;52.622;7.746;2023-04-25T06:27:13;8.15;;;3.50;;
77304;SDS011;66364;52.622;7.746;2023-04-25T06:29:14;14.53;;;3.75;;
77304;SDS011;66364;52.622;7.746;2023-04-25T06:31:14;19.40;;;5.20;;
77304;SDS011;66364;52.622;7.746;2023-04-25T06:33:15;9.70;;;4.03;;
77304;SDS011;66364;52.622;7.746;2023-04-25T06:35:16;14.40;;;3.60;;
77304;SDS011;66364;52.622;7.746;2023-04-25T06:37:17;15.40;;;4.03;;
77304;SDS011;66364;52.622;7.746;2023-04-25T06:39:18;11.07;;;4.30;;
77304;SDS011;66364;52.622;7.746;2023-04-25T06:41:19;16.37;;;5.83;;
77304;SDS011;66364;52.622;7.746;2023-04-25T06:43:20;10.87;;;3.70;;
77304;SDS011;66364;52.622;7.746;2023-04-25T06:45:22;12.57;;;4.23;;
77304;SDS011;66364;52.622;7.746;2023-04-25T06:47:24;11.20;;;5.75;;
77304;SDS011;66364;52.622;7.746;2023-04-25T06:49:24;10.32;;;3.65;;
77304;SDS011;66364;52.622;7.746;2023-04-25T06:51:25;8.57;;;3.90;;
77304;SDS011;66364;52.622;7.746;2023-04-25T06:55:30;10.78;;;2.90;;
77304;SDS011;66364;52.622;7.746;2023-04-25T06:57:31;9.47;;;3.43;;
77304;SDS011;66364;52.622;7.746;2023-04-25T06:59:32;11.05;;;3.52;;
77304;SDS011;66364;52.622;7.746;2023-04-25T07:01:35;9.07;;;4.17;;
77304;SDS011;66364;52.622;7.746;2023-04-25T07:03:35;10.95;;;4.00;;
77304;SDS011;66364;52.622;7.746;2023-04-25T07:05:36;10.00;;;3.60;;
77304;SDS011;66364;52.622;7.746;2023-04-25T07:07:37;11.00;;;3.67;;
77304;SDS011;66364;52.622;7.746;2023-04-25T07:09:39;8.63;;;3.02;;
77304;SDS011;66364;52.622;7.746;2023-04-25T07:11:40;18.23;;;6.42;;
77304;SDS011;66364;52.622;7.746;2023-04-25T07:13:41;13.07;;;5.97;;
77304;SDS011;66364;52.622;7.746;2023-04-25T07:15:43;7.50;;;3.17;;
77304;SDS011;66364;52.622;7.746;2023-04-25T07:17:44;7.22;;;2.80;;
77304;SDS011;66364;52.622;7.746;2023-04-25T07:19:45;11.60;;;3.20;;
77304;SDS011;66364;52.622;7.746;2023-04-25T07:21:45;10.80;;;3.13;;
77304;SDS011;66364;52.622;7.746;2023-04-25T07:23:46;8.30;;;2.80;;
77304;SDS011;66364;52.622;7.746;2023-04-25T07:25:47;8.20;;;2.80;;
77304;SDS011;66364;52.622;7.746;2023-04-25T07:27:48;7.78;;;2.55;;
77304;SDS011;66364;52.622;7.746;2023-04-25T07:29:49;13.00;;;3.70;;
77304;SDS011;66364;52.622;7.746;2023-04-25T07:31:50;12.43;;;3.52;;
77304;SDS011;66364;52.622;7.746;2023-04-25T07:33:51;10.60;;;2.83;;
77304;SDS011;66364;52.622;7.746;2023-04-25T07:35:52;12.43;;;3.22;;
77304;SDS011;66364;52.622;7.746;2023-04-25T07:37:53;7.80;;;2.67;;
77304;SDS011;66364;52.622;7.746;2023-04-25T07:39:54;9.30;;;3.00;;
77304;SDS011;66364;52.622;7.746;2023-04-25T07:41:55;9.20;;;2.40;;
77304;SDS011;66364;52.622;7.746;2023-04-25T07:43:56;8.80;;;2.03;;
77304;SDS011;66364;52.622;7.746;2023-04-25T07:45:56;8.57;;;2.70;;
77304;SDS011;66364;52.622;7.746;2023-04-25T07:47:58;16.65;;;2.55;;
77304;SDS011;66364;52.622;7.746;2023-04-25T07:49:59;10.32;;;2.20;;
77304;SDS011;66364;52.622;7.746;2023-04-25T07:52:00;6.83;;;2.40;;
77304;SDS011;66364;52.622;7.746;2023-04-25T07:54:06;9.60;;;2.00;;
77304;SDS011;66364;52.622;7.746;2023-04-25T07:56:07;8.85;;;2.92;;
77304;SDS011;66364;52.622;7.746;2023-04-25T07:58:09;12.33;;;2.80;;
77304;SDS011;66364;52.622;7.746;2023-04-25T08:00:12;7.87;;;2.20;;
77304;SDS011;66364;52.622;7.746;2023-04-25T08:02:41;6.12;;;2.65;;
77304;SDS011;66364;52.622;7.746;2023-04-25T08:04:42;8.67;;;2.53;;
77304;SDS011;66364;52.622;7.746;2023-04-25T08:06:43;6.10;;;2.10;;
77304;SDS011;66364;52.622;7.746;2023-04-25T08:08:44;7.53;;;3.02;;
77304;SDS011;66364;52.622;7.746;2023-04-25T08:10:46;4.67;;;1.82;;
77304;SDS011;66364;52.622;7.746;2023-04-25T08:12:46;7.27;;;2.30;;
77304;SDS011;66364;52.622;7.746;2023-04-25T08:14:47;4.70;;;1.70;;
77304;SDS011;66364;52.622;7.746;2023-04-25T08:16:48;5.10;;;1.60;;
77304;SDS011;66364;52.622;7.746;2023-04-25T08:18:50;8.88;;;2.52;;
77304;SDS011;66364;52.622;7.746;2023-04-25T08:20:54;4.95;;;2.02;;
77304;SDS011;66364;52.622;7.746;2023-04-25T08:22:55;3.90;;;1.97;;
77304;SDS011;66364;52.622;7.746;2023-04-25T08:24:56;8.63;;;2.20;;
77304;SDS011;66364;52.622;7.746;2023-04-25T08:26:58;5.45;;;1.70;;
77304;SDS011;66364;52.622;7.746;2023-04-25T08:29:00;7.00;;;1.35;;
77304;SDS011;66364;52.622;7.746;2023-04-25T08:31:00;9.43;;;1.60;;
77304;SDS011;66364;52.622;7.746;2023-04-25T08:33:01;7.25;;;2.10;;
77304;SDS011;66364;52.622;7.746;2023-04-25T08:35:03;5.15;;;2.05;;
77304;SDS011;66364;52.622;7.746;2023-04-25T08:37:04;8.40;;;1.90;;
77304;SDS011;66364;52.622;7.746;2023-04-25T08:39:05;4.03;;;1.87;;
77304;SDS011;66364;52.622;7.746;2023-04-25T08:41:06;6.70;;;1.50;;
77304;SDS011;66364;52.622;7.746;2023-04-25T08:43:07;6.83;;;2.52;;
77304;SDS011;66364;52.622;7.746;2023-04-25T08:45:08;4.65;;;1.90;;
77304;SDS011;66364;52.622;7.746;2023-04-25T08:47:17;2.85;;;1.32;;
77304;SDS011;66364;52.622;7.746;2023-04-25T08:49:21;5.45;;;1.87;;
77304;SDS011;66364;52.622;7.746;2023-04-25T08:51:22;6.77;;;1.63;;
77304;SDS011;66364;52.622;7.746;2023-04-25T08:53:29;6.60;;;2.25;;
77304;SDS011;66364;52.622;7.746;2023-04-25T08:55:32;9.30;;;2.05;;
77304;SDS011;66364;52.622;7.746;2023-04-25T08:57:33;3.08;;;1.47;;
77304;SDS011;66364;52.622;7.746;2023-04-25T08:59:35;9.38;;;1.90;;
77304;SDS011;66364;52.622;7.746;2023-04-25T09:01:36;4.62;;;1.55;;
77304;SDS011;66364;52.622;7.746;2023-04-25T09:03:37;6.80;;;1.60;;
77304;SDS011;66364;52.622;7.746;2023-04-25T09:05:39;7.70;;;2.17;;
77304;SDS011;66364;52.622;7.746;2023-04-25T09:07:41;7.12;;;2.33;;
77304;SDS011;66364;52.622;7.746;2023-04-25T09:09:42;2.97;;;1.80;;
77304;SDS011;66364;52.622;7.746;2023-04-25T09:11:52;7.00;;;2.00;;
77304;SDS011;66364;52.622;7.746;2023-04-25T09:16:17;5.47;;;1.90;;
77304;SDS011;66364;52.622;7.746;2023-04-25T09:18:25;5.50;;;1.60;;
77304;SDS011;66364;52.622;7.746;2023-04-25T09:23:02;2.87;;;1.30;;
77304;SDS011;66364;52.622;7.746;2023-04-25T09:25:08;3.87;;;1.30;;
77304;SDS011;66364;52.622;7.746;2023-04-25T09:27:13;1.87;;;0.88;;
77304;SDS011;66364;52.622;7.746;2023-04-25T09:29:16;4.10;;;1.50;;
77304;SDS011;66364;52.622;7.746;2023-04-25T09:31:21;2.65;;;1.17;;
77304;SDS011;66364;52.622;7.746;2023-04-25T09:33:32;5.35;;;1.22;;
77304;SDS011;66364;52.622;7.746;2023-04-25T09:35:42;5.78;;;1.25;;
77304;SDS011;66364;52.622;7.746;2023-04-25T09:37:41;1.77;;;1.10;;
77304;SDS011;66364;52.622;7.746;2023-04-25T09:39:42;2.15;;;0.82;;
77304;SDS011;66364;52.622;7.746;2023-04-25T09:41:45;4.25;;;1.02;;
77304;SDS011;66364;52.622;7.746;2023-04-25T09:43:46;2.93;;;1.07;;
77304;SDS011;66364;52.622;7.746;2023-04-25T09:45:51;3.92;;;2.20;;
77304;SDS011;66364;52.622;7.746;2023-04-25T09:47:57;4.90;;;1.35;;
77304;SDS011;66364;52.622;7.746;2023-04-25T09:50:01;4.40;;;1.17;;
77304;SDS011;66364;52.622;7.746;2023-04-25T09:52:03;4.70;;;1.12;;
77304;SDS011;66364;52.622;7.746;2023-04-25T09:54:04;2.70;;;1.00;;
77304;SDS011;66364;52.622;7.746;2023-04-25T09:56:05;2.33;;;1.05;;
77304;SDS011;66364;52.622;7.746;2023-04-25T09:58:08;3.60;;;1.27;;
77304;SDS011;66364;52.622;7.746;2023-04-25T10:00:12;3.02;;;1.27;;
77304;SDS011;66364;52.622;7.746;2023-04-25T10:02:14;3.22;;;1.50;;
77304;SDS011;66364;52.622;7.746;2023-04-25T10:04:18;2.40;;;1.50;;
77304;SDS011;66364;52.622;7.746;2023-04-25T10:06:20;4.72;;;1.52;;
77304;SDS011;66364;52.622;7.746;2023-04-25T10:08:37;9.80;;;2.10;;
77304;SDS011;66364;52.622;7.746;2023-04-25T10:10:39;3.65;;;1.65;;
77304;SDS011;66364;52.622;7.746;2023-04-25T10:12:40;6.37;;;1.75;;
77304;SDS011;66364;52.622;7.746;2023-04-25T10:14:42;7.60;;;1.75;;
77304;SDS011;66364;52.622;7.746;2023-04-25T10:16:45;4.08;;;1.80;;
77304;SDS011;66364;52.622;7.746;2023-04-25T10:18:47;2.95;;;1.75;;
77304;SDS011;66364;52.622;7.746;2023-04-25T10:20:49;4.40;;;1.40;;
77304;SDS011;66364;52.622;7.746;2023-04-25T10:23:03;2.75;;;1.35;;
77304;SDS011;66364;52.622;7.746;2023-04-25T10:25:06;7.25;;;1.85;;
77304;SDS011;66364;52.622;7.746;2023-04-25T10:27:09;4.90;;;2.15;;
77304;SDS011;66364;52.622;7.746;2023-04-25T10:29:11;5.90;;;2.02;;
77304;SDS011;66364;52.622;7.746;2023-04-25T10:31:12;2.10;;;1.37;;
77304;SDS011;66364;52.622;7.746;2023-04-25T10:33:16;6.30;;;1.80;;
77304;SDS011;66364;52.622;7.746;2023-04-25T10:35:22;5.17;;;1.40;;
77304;SDS011;66364;52.622;7.746;2023-04-25T10:37:25;3.90;;;1.50;;
77304;SDS011;66364;52.622;7.746;2023-04-25T10:39:26;3.90;;;1.43;;
77304;SDS011;66364;52.622;7.746;2023-04-25T10:41:28;3.52;;;1.30;;
77304;SDS011;66364;52.622;7.746;2023-04-25T10:48:00;4.22;;;1.70;;
77304;SDS011;66364;52.622;7.746;2023-04-25T10:50:09;4.00;;;1.57;;
77304;SDS011;66364;52.622;7.746;2023-04-25T10:54:50;4.20;;;1.05;;
77304;SDS011;66364;52.622;7.746;2023-04-25T10:56:55;3.45;;;1.50;;
77304;SDS011;66364;52.622;7.746;2023-04-25T10:59:05;4.97;;;1.30;;
77304;SDS011;66364;52.622;7.746;2023-04-25T11:01:21;12.00;;;2.35;;
77304;SDS011;66364;52.622;7.746;2023-04-25T11:03:25;2.08;;;1.20;;
77304;SDS011;66364;52.622;7.746;2023-04-25T11:05:31;4.72;;;1.55;;
77304;SDS011;66364;52.622;7.746;2023-04-25T11:07:34;5.62;;;1.22;;
77304;SDS011;66364;52.622;7.746;2023-04-25T11:09:47;3.95;;;1.10;;
77304;SDS011;66364;52.622;7.746;2023-04-25T11:11:54;1.67;;;1.10;;
77304;SDS011;66364;52.622;7.746;2023-04-25T11:13:56;3.45;;;1.87;;
77304;SDS011;66364;52.622;7.746;2023-04-25T11:15:57;3.67;;;0.93;;
77304;SDS011;66364;52.622;7.746;2023-04-25T11:17:58;2.10;;;1.10;;
77304;SDS011;66364;52.622;7.746;2023-04-25T11:19:59;3.67;;;0.97;;
77304;SDS011;66364;52.622;7.746;2023-04-25T11:22:01;4.42;;;1.00;;
77304;SDS011;66364;52.622;7.746;2023-04-25T11:24:03;3.70;;;1.60;;
77304;SDS011;66364;52.622;7.746;2023-04-25T11:26:05;5.17;;;1.00;;
77304;SDS011;66364;52.622;7.746;2023-04-25T11:28:05;2.77;;;0.90;;
77304;SDS011;66364;52.622;7.746;2023-04-25T11:30:10;4.40;;;1.40;;
77304;SDS011;66364;52.622;7.746;2023-04-25T11:32:15;7.30;;;1.20;;
77304;SDS011;66364;52.622;7.746;2023-04-25T11:34:19;2.83;;;0.93;;
77304;SDS011;66364;52.622;7.746;2023-04-25T11:36:20;4.40;;;1.12;;
77304;SDS011;66364;52.622;7.746;2023-04-25T11:38:25;2.30;;;1.00;;
77304;SDS011;66364;52.622;7.746;2023-04-25T11:40:26;3.85;;;1.32;;
77304;SDS011;66364;52.622;7.746;2023-04-25T11:42:27;3.60;;;1.20;;
77304;SDS011;66364;52.622;7.746;2023-04-25T11:44:29;5.00;;;1.30;;
77304;SDS011;66364;52.622;7.746;2023-04-25T11:46:30;2.72;;;1.30;;
77304;SDS011;66364;52.622;7.746;2023-04-25T11:48:44;3.17;;;2.45;;
77304;SDS011;66364;52.622;7.746;2023-04-25T11:50:43;2.67;;;1.10;;
77304;SDS011;66364;52.622;7.746;2023-04-25T11:52:45;1.85;;;0.95;;
77304;SDS011;66364;52.622;7.746;2023-04-25T11:54:47;1.85;;;1.00;;
77304;SDS011;66364;52.622;7.746;2023-04-25T11:56:59;7.40;;;1.43;;
77304;SDS011;66364;52.622;7.746;2023-04-25T11:59:05;4.05;;;1.20;;
77304;SDS011;66364;52.622;7.746;2023-04-25T12:01:24;3.02;;;0.80;;
77304;SDS011;66364;52.622;7.746;2023-04-25T12:03:32;3.37;;;1.10;;
77304;SDS011;66364;52.622;7.746;2023-04-25T12:07:51;2.02;;;0.88;;
77304;SDS011;66364;52.622;7.746;2023-04-25T12:09:52;3.22;;;1.50;;
77304;SDS011;66364;52.622;7.746;2023-04-25T12:11:53;2.83;;;1.20;;
77304;SDS011;66364;52.622;7.746;2023-04-25T12:14:04;2.75;;;1.42;;
77304;SDS011;66364;52.622;7.746;2023-04-25T12:16:06;5.08;;;1.40;;
77304;SDS011;66364;52.622;7.746;2023-04-25T12:18:07;6.47;;;3.20;;
77304;SDS011;66364;52.622;7.746;2023-04-25T12:20:08;2.40;;;0.90;;
77304;SDS011;66364;52.622;7.746;2023-04-25T12:22:23;2.37;;;1.95;;
77304;SDS011;66364;52.622;7.746;2023-04-25T12:24:25;3.62;;;1.00;;
77304;SDS011;66364;52.622;7.746;2023-04-25T12:26:34;2.92;;;1.02;;
77304;SDS011;66364;52.622;7.746;2023-04-25T12:28:32;3.27;;;1.20;;
77304;SDS011;66364;52.622;7.746;2023-04-25T12:30:51;2.30;;;1.15;;
77304;SDS011;66364;52.622;7.746;2023-04-25T12:32:55;3.17;;;1.10;;
77304;SDS011;66364;52.622;7.746;2023-04-25T12:34:56;7.60;;;1.73;;
77304;SDS011;66364;52.622;7.746;2023-04-25T12:36:58;2.77;;;1.67;;